createdAt,value
2018-10-02T00:01:02.934Z,7.60
2018-10-02T00:03:31.238Z,7.60
2018-10-02T00:05:59.494Z,7.60
2018-10-02T00:08:27.738Z,7.60
2018-10-02T00:11:01.360Z,7.60
2018-10-02T00:13:35.034Z,7.60
2018-10-02T00:16:03.323Z,7.60
2018-10-02T00:18:31.601Z,7.60
2018-10-02T00:20:59.835Z,7.60
2018-10-02T00:23:28.111Z,7.60
2018-10-02T00:25:56.423Z,7.60
2018-10-02T00:28:24.942Z,7.60
2018-10-02T00:30:53.231Z,7.60
2018-10-02T00:33:21.479Z,7.60
2018-10-02T00:35:49.731Z,7.60
2018-10-02T00:38:17.978Z,7.60
2018-10-02T00:40:46.237Z,7.60
2018-10-02T00:43:14.503Z,7.60
2018-10-02T00:45:42.797Z,7.70
2018-10-02T00:48:11.051Z,7.70
2018-10-02T00:50:39.353Z,7.70
2018-10-02T00:53:07.607Z,7.70
2018-10-02T00:55:35.900Z,7.70
2018-10-02T00:58:04.199Z,7.80
2018-10-02T01:00:32.492Z,7.80
2018-10-02T01:03:01.864Z,7.90
2018-10-02T01:05:30.135Z,7.90
2018-10-02T01:07:58.440Z,7.90
2018-10-02T01:10:26.714Z,7.90
2018-10-02T01:12:54.982Z,7.90
2018-10-02T01:15:23.231Z,8.00
2018-10-02T01:17:51.476Z,8.00
2018-10-02T01:20:19.751Z,8.10
2018-10-02T01:22:48.047Z,8.10
2018-10-02T01:25:16.291Z,8.10
2018-10-02T01:27:44.579Z,8.10
2018-10-02T01:30:12.824Z,8.20
2018-10-02T01:32:41.099Z,8.10
2018-10-02T01:35:09.369Z,8.10
2018-10-02T01:37:37.663Z,8.10
2018-10-02T01:40:05.927Z,8.10
2018-10-02T01:42:34.215Z,8.20
2018-10-02T01:45:02.451Z,8.20
2018-10-02T01:47:30.735Z,8.20
2018-10-02T01:49:58.995Z,8.20
2018-10-02T01:52:27.239Z,8.20
2018-10-02T01:54:55.500Z,8.20
2018-10-02T01:57:23.779Z,8.10
2018-10-02T01:59:52.004Z,8.10
2018-10-02T02:02:20.292Z,8.10
2018-10-02T02:04:49.476Z,8.10
2018-10-02T02:07:17.732Z,8.10
2018-10-02T02:09:46.005Z,8.20
2018-10-02T02:12:14.265Z,8.20
2018-10-02T02:14:42.508Z,8.20
2018-10-02T02:17:10.746Z,8.20
2018-10-02T02:19:39.028Z,8.10
2018-10-02T02:22:07.313Z,8.10
2018-10-02T02:24:35.711Z,8.10
2018-10-02T02:27:03.936Z,8.00
2018-10-02T02:29:32.180Z,8.00
2018-10-02T02:32:00.433Z,8.00
2018-10-02T02:34:28.644Z,8.00
2018-10-02T02:36:56.876Z,8.00
2018-10-02T02:39:25.133Z,8.00
2018-10-02T02:41:53.354Z,8.00
2018-10-02T02:44:21.601Z,8.10
2018-10-02T02:46:49.881Z,8.10
2018-10-02T02:49:23.601Z,8.10
2018-10-02T02:51:51.868Z,8.10
2018-10-02T02:54:20.143Z,8.10
2018-10-02T02:56:48.397Z,8.20
2018-10-02T02:59:16.652Z,8.10
2018-10-02T03:01:44.937Z,8.20
2018-10-02T03:04:13.193Z,8.30
2018-10-02T03:06:41.440Z,8.20
2018-10-02T03:09:09.709Z,8.20
2018-10-02T03:11:37.960Z,8.20
2018-10-02T03:14:06.232Z,8.20
2018-10-02T03:16:34.539Z,8.30
2018-10-02T03:19:02.845Z,8.30
2018-10-02T03:21:31.071Z,8.30
2018-10-02T03:23:59.350Z,8.30
2018-10-02T03:26:27.649Z,8.40
2018-10-02T03:28:55.921Z,8.40
2018-10-02T03:31:24.180Z,8.40
2018-10-02T03:33:52.437Z,8.50
2018-10-02T03:36:20.689Z,8.50
2018-10-02T03:38:49.936Z,8.50
2018-10-02T03:41:18.245Z,8.40
2018-10-02T03:43:46.524Z,8.40
2018-10-02T03:46:14.765Z,8.40
2018-10-02T03:48:43.101Z,8.40
2018-10-02T03:51:11.349Z,8.40
2018-10-02T03:53:39.638Z,8.50
2018-10-02T03:56:07.945Z,8.40
2018-10-02T03:58:36.278Z,8.40
2018-10-02T04:01:04.685Z,8.50
2018-10-02T04:03:32.981Z,8.50
2018-10-02T04:06:01.237Z,8.50
2018-10-02T04:08:29.514Z,8.50
2018-10-02T04:10:57.789Z,8.60
2018-10-02T04:13:26.025Z,8.60
2018-10-02T04:15:54.325Z,8.60
2018-10-02T04:18:22.556Z,8.70
2018-10-02T04:20:50.918Z,8.60
2018-10-02T04:23:20.034Z,8.70
2018-10-02T04:25:49.250Z,8.60
2018-10-02T04:28:17.730Z,8.70
2018-10-02T04:30:46.086Z,8.70
2018-10-02T04:33:14.349Z,8.70
2018-10-02T04:35:42.638Z,8.80
2018-10-02T04:38:10.954Z,8.70
2018-10-02T04:40:39.230Z,8.70
2018-10-02T04:43:07.515Z,8.80
2018-10-02T04:45:35.894Z,8.70
2018-10-02T04:48:04.207Z,8.80
2018-10-02T04:50:32.469Z,8.80
2018-10-02T04:53:00.706Z,8.80
2018-10-02T04:55:28.978Z,8.80
2018-10-02T04:57:57.294Z,8.80
2018-10-02T05:00:25.594Z,8.70
2018-10-02T05:02:53.973Z,8.70
2018-10-02T05:05:22.242Z,8.70
2018-10-02T05:07:50.480Z,8.70
2018-10-02T05:10:24.051Z,8.60
2018-10-02T05:12:54.951Z,8.60
2018-10-02T05:15:23.314Z,8.60
2018-10-02T05:17:51.671Z,8.60
2018-10-02T05:20:20.068Z,8.70
2018-10-02T05:22:48.327Z,8.60
2018-10-02T05:25:16.583Z,8.60
2018-10-02T05:27:44.903Z,8.60
2018-10-02T05:30:13.135Z,8.60
2018-10-02T05:32:41.403Z,8.60
2018-10-02T05:35:09.765Z,8.50
2018-10-02T05:37:37.947Z,8.60
2018-10-02T05:40:06.499Z,8.60
2018-10-02T05:42:34.851Z,8.60
2018-10-02T05:45:03.127Z,8.60
2018-10-02T05:47:31.444Z,8.60
2018-10-02T05:49:59.704Z,8.60
2018-10-02T05:52:27.963Z,8.50
2018-10-02T05:54:56.259Z,8.50
2018-10-02T05:57:24.552Z,8.50
2018-10-02T05:59:52.792Z,8.50
2018-10-02T06:02:23.588Z,8.50
2018-10-02T06:04:51.836Z,8.50
2018-10-02T06:07:20.092Z,8.50
2018-10-02T06:09:48.386Z,8.40
2018-10-02T06:12:16.579Z,8.40
2018-10-02T06:14:44.853Z,8.40
2018-10-02T06:17:13.118Z,8.40
2018-10-02T06:19:41.671Z,8.50
2018-10-02T06:22:10.028Z,8.50
2018-10-02T06:24:38.717Z,8.50
2018-10-02T06:27:07.028Z,8.50
2018-10-02T06:29:35.896Z,8.50
2018-10-02T06:32:04.476Z,8.50
2018-10-02T06:34:32.740Z,8.40
2018-10-02T06:37:01.037Z,8.40
2018-10-02T06:39:30.621Z,8.40
2018-10-02T06:41:59.661Z,8.30
2018-10-02T06:44:28.287Z,8.30
2018-10-02T06:46:56.508Z,8.30
2018-10-02T06:49:24.787Z,8.30
2018-10-02T06:51:53.187Z,8.30
2018-10-02T06:54:21.505Z,8.30
2018-10-02T06:56:49.765Z,8.40
2018-10-02T06:59:18.032Z,8.40
2018-10-02T07:01:46.329Z,8.40
2018-10-02T07:04:14.617Z,8.40
2018-10-02T07:06:42.916Z,8.50
2018-10-02T07:09:11.512Z,8.50
2018-10-02T07:11:40.668Z,8.50
2018-10-02T07:14:09.684Z,8.50
2018-10-02T07:16:38.185Z,8.50
2018-10-02T07:19:06.729Z,8.50
2018-10-02T07:21:34.972Z,8.50
2018-10-02T07:24:03.218Z,8.50
2018-10-02T07:26:31.631Z,8.60
2018-10-02T07:28:59.909Z,8.60
2018-10-02T07:31:28.309Z,8.60
2018-10-02T07:33:56.628Z,8.70
2018-10-02T07:36:24.891Z,8.70
2018-10-02T07:38:53.170Z,8.70
2018-10-02T07:41:21.564Z,8.70
2018-10-02T07:43:49.897Z,8.70
2018-10-02T07:46:18.157Z,8.80
2018-10-02T07:48:46.414Z,8.80
2018-10-02T07:51:14.677Z,8.80
2018-10-02T07:53:43.028Z,8.90
2018-10-02T07:56:11.304Z,8.90
2018-10-02T07:58:39.589Z,8.90
2018-10-02T08:01:07.922Z,8.90
2018-10-02T08:03:36.298Z,8.90
2018-10-02T08:06:04.568Z,8.90
2018-10-02T08:08:33.042Z,9.00
2018-10-02T08:11:01.389Z,8.90
2018-10-02T08:13:29.754Z,9.00
2018-10-02T08:15:58.002Z,9.00
2018-10-02T08:18:26.310Z,9.00
2018-10-02T08:20:54.730Z,9.10
2018-10-02T08:23:23.021Z,9.10
2018-10-02T08:25:51.770Z,9.10
2018-10-02T08:28:21.458Z,9.10
2018-10-02T08:30:50.362Z,9.10
2018-10-02T08:33:18.654Z,9.10
2018-10-02T08:35:47.126Z,9.20
2018-10-02T08:38:15.347Z,9.20
2018-10-02T08:40:43.886Z,9.20
2018-10-02T08:43:12.259Z,9.20
2018-10-02T08:45:40.558Z,9.10
2018-10-02T08:48:09.246Z,9.10
2018-10-02T08:50:37.587Z,9.10
2018-10-02T08:53:05.842Z,9.20
2018-10-02T08:55:34.123Z,9.20
2018-10-02T08:58:02.422Z,9.30
2018-10-02T09:00:30.744Z,9.20
2018-10-02T09:02:58.974Z,9.20
2018-10-02T09:05:27.266Z,9.20
2018-10-02T09:07:55.584Z,9.20
2018-10-02T09:10:23.830Z,9.30
2018-10-02T09:12:52.241Z,9.30
2018-10-02T09:15:20.539Z,9.30
2018-10-02T09:17:48.827Z,9.30
2018-10-02T09:20:17.086Z,9.40
2018-10-02T09:22:46.510Z,9.50
2018-10-02T09:25:14.851Z,9.50
2018-10-02T09:27:43.280Z,9.50
2018-10-02T09:30:16.774Z,9.50
2018-10-02T09:32:50.526Z,9.60
2018-10-02T09:35:24.199Z,9.70
2018-10-02T09:37:57.996Z,9.80
2018-10-02T09:40:31.651Z,9.80
2018-10-02T09:43:05.205Z,9.90
2018-10-02T09:45:33.470Z,9.80
2018-10-02T09:48:06.931Z,9.80
2018-10-02T09:50:35.239Z,9.90
2018-10-02T09:53:04.303Z,9.90
2018-10-02T09:55:32.632Z,9.90
2018-10-02T09:58:01.151Z,9.90
2018-10-02T10:00:38.220Z,9.90
2018-10-02T10:03:06.535Z,9.90
2018-10-02T10:05:34.784Z,10.00
2018-10-02T10:08:03.090Z,9.90
2018-10-02T10:10:31.475Z,9.90
2018-10-02T10:12:59.751Z,10.00
2018-10-02T10:15:28.023Z,10.00
2018-10-02T10:17:56.267Z,10.00
2018-10-02T10:20:24.607Z,10.00
2018-10-02T10:22:53.192Z,10.00
2018-10-02T10:25:21.407Z,10.00
2018-10-02T10:27:49.655Z,10.00
2018-10-02T10:30:18.260Z,9.90
2018-10-02T10:32:46.536Z,9.90
2018-10-02T10:35:14.853Z,10.00
2018-10-02T10:37:43.116Z,10.00
2018-10-02T10:40:11.423Z,10.00
2018-10-02T10:42:39.703Z,10.00
2018-10-02T10:45:07.991Z,10.00
2018-10-02T10:47:36.267Z,10.00
2018-10-02T10:50:04.543Z,10.10
2018-10-02T10:52:32.881Z,10.10
2018-10-02T10:55:29.067Z,10.20
2018-10-02T10:57:57.351Z,10.20
2018-10-02T11:00:25.623Z,10.20
2018-10-02T11:02:53.958Z,10.10
2018-10-02T11:05:22.216Z,10.20
2018-10-02T11:07:50.547Z,10.20
2018-10-02T11:10:19.536Z,10.30
2018-10-02T11:12:47.876Z,10.30
2018-10-02T11:15:16.964Z,10.30
2018-10-02T11:17:45.143Z,10.30
2018-10-02T11:20:15.828Z,10.40
2018-10-02T11:22:44.127Z,10.40
2018-10-02T11:25:12.480Z,10.50
2018-10-02T11:27:40.672Z,10.50
2018-10-02T11:30:09.310Z,10.60
2018-10-02T11:32:37.836Z,10.50
2018-10-02T11:35:06.116Z,10.50
2018-10-02T11:37:34.466Z,10.60
2018-10-02T11:40:02.744Z,10.60
2018-10-02T11:42:31.321Z,10.60
2018-10-02T11:44:59.834Z,10.60
2018-10-02T11:47:27.865Z,10.70
2018-10-02T11:49:56.248Z,10.70
2018-10-02T11:52:24.593Z,10.70
2018-10-02T11:54:52.966Z,10.80
2018-10-02T11:57:21.253Z,10.80
2018-10-02T11:59:49.513Z,10.80
2018-10-02T12:02:17.797Z,10.80
2018-10-02T12:04:46.305Z,10.80
2018-10-02T12:07:14.621Z,10.80
2018-10-02T12:09:42.993Z,10.90
2018-10-02T12:12:11.469Z,10.90
2018-10-02T12:14:40.043Z,10.90
2018-10-02T12:17:08.301Z,11.00
2018-10-02T12:19:36.801Z,11.00
2018-10-02T12:22:05.122Z,11.00
2018-10-02T12:24:33.392Z,11.10
2018-10-02T12:27:01.658Z,11.10
2018-10-02T12:29:29.949Z,11.20
2018-10-02T12:31:58.435Z,11.20
2018-10-02T12:34:26.716Z,11.20
2018-10-02T12:36:55.060Z,11.20
2018-10-02T12:39:23.375Z,11.30
2018-10-02T12:41:51.697Z,11.30
2018-10-02T12:44:19.957Z,11.30
2018-10-02T12:46:48.287Z,11.30
2018-10-02T12:49:16.529Z,11.40
2018-10-02T12:51:44.814Z,11.40
2018-10-02T12:54:13.114Z,11.40
2018-10-02T12:56:41.398Z,11.50
2018-10-02T12:59:09.846Z,11.50
2018-10-02T13:01:38.127Z,11.50
2018-10-02T13:04:06.455Z,11.60
2018-10-02T13:06:34.829Z,11.60
2018-10-02T13:09:03.309Z,11.70
2018-10-02T13:11:31.634Z,11.70
2018-10-02T13:13:59.958Z,11.80
2018-10-02T13:16:28.303Z,11.80
2018-10-02T13:18:56.525Z,11.80
2018-10-02T13:21:24.790Z,11.90
2018-10-02T13:23:53.518Z,11.90
2018-10-02T13:26:21.941Z,11.90
2018-10-02T13:28:50.298Z,12.00
2018-10-02T13:31:18.567Z,12.00
2018-10-02T13:33:46.849Z,12.10
2018-10-02T13:36:15.183Z,12.10
2018-10-02T13:38:43.442Z,12.20
2018-10-02T13:41:11.702Z,12.30
2018-10-02T13:43:39.998Z,12.30
2018-10-02T13:46:08.290Z,12.40
2018-10-02T13:48:36.568Z,12.50
2018-10-02T13:51:04.846Z,12.60
2018-10-02T13:53:33.168Z,12.60
2018-10-02T13:56:01.411Z,12.80
2018-10-02T13:58:29.678Z,12.90
2018-10-02T14:00:57.939Z,12.90
2018-10-02T14:03:26.242Z,13.00
2018-10-02T14:05:54.511Z,13.00
2018-10-02T14:08:22.867Z,13.00
2018-10-02T14:10:51.139Z,13.10
2018-10-02T14:13:19.446Z,13.10
2018-10-02T14:15:47.740Z,13.20
2018-10-02T14:18:15.995Z,13.20
2018-10-02T14:20:44.259Z,13.40
2018-10-02T14:23:12.575Z,13.50
2018-10-02T14:25:40.927Z,13.60
2018-10-02T14:28:09.809Z,13.60
2018-10-02T14:30:38.291Z,13.70
2018-10-02T14:33:06.767Z,13.80
2018-10-02T14:35:35.108Z,13.90
2018-10-02T14:38:03.479Z,14.00
2018-10-02T14:40:31.763Z,14.00
2018-10-02T14:43:00.107Z,14.00
2018-10-02T14:45:28.452Z,14.00
2018-10-02T14:47:56.723Z,14.00
2018-10-02T14:50:24.999Z,14.00
2018-10-02T14:52:54.095Z,14.00
2018-10-02T14:55:22.520Z,14.00
2018-10-02T14:57:51.126Z,14.00
2018-10-02T15:00:19.572Z,14.00
2018-10-02T15:02:48.191Z,14.10
2018-10-02T15:05:16.468Z,14.10
2018-10-02T15:07:44.832Z,14.10
2018-10-02T15:10:13.143Z,14.10
2018-10-02T15:12:41.419Z,14.10
2018-10-02T15:15:09.724Z,14.20
2018-10-02T15:17:38.068Z,14.10
2018-10-02T15:20:06.320Z,13.90
2018-10-02T15:22:34.583Z,13.80
2018-10-02T15:25:02.848Z,13.80
2018-10-02T15:27:31.132Z,13.80
2018-10-02T15:29:59.616Z,13.90
2018-10-02T15:32:27.869Z,14.10
2018-10-02T15:34:56.140Z,14.20
2018-10-02T15:37:24.488Z,14.40
2018-10-02T15:39:52.738Z,14.40
2018-10-02T15:42:21.030Z,14.50
2018-10-02T15:44:49.400Z,14.50
2018-10-02T15:47:17.645Z,14.50
2018-10-02T15:49:45.925Z,14.50
2018-10-02T15:52:14.225Z,14.40
2018-10-02T15:54:42.502Z,14.50
2018-10-02T15:57:11.270Z,14.50
2018-10-02T15:59:39.545Z,14.60
2018-10-02T16:02:07.810Z,14.60
2018-10-02T16:04:36.071Z,14.70
2018-10-02T16:07:04.642Z,14.70
2018-10-02T16:09:32.906Z,14.70
2018-10-02T16:12:01.223Z,14.60
2018-10-02T16:14:29.739Z,14.60
2018-10-02T16:16:58.030Z,14.50
2018-10-02T16:19:26.272Z,14.50
2018-10-02T16:21:54.650Z,14.50
2018-10-02T16:24:22.839Z,14.50
2018-10-02T16:26:51.142Z,14.50
2018-10-02T16:29:19.440Z,14.40
2018-10-02T16:31:47.778Z,14.40
2018-10-02T16:34:16.059Z,14.40
2018-10-02T16:36:44.362Z,14.30
2018-10-02T16:39:12.678Z,14.30
2018-10-02T16:41:40.941Z,14.20
2018-10-02T16:44:09.385Z,14.20
2018-10-02T16:46:37.733Z,14.10
2018-10-02T16:49:06.024Z,14.10
2018-10-02T16:51:34.416Z,14.10
2018-10-02T16:54:02.684Z,14.00
2018-10-02T16:56:30.928Z,14.00
2018-10-02T16:58:59.516Z,13.90
2018-10-02T17:01:27.904Z,13.80
2018-10-02T17:03:56.168Z,13.90
2018-10-02T17:06:24.441Z,13.80
2018-10-02T17:08:52.714Z,13.80
2018-10-02T17:11:20.999Z,13.80
2018-10-02T17:13:49.451Z,13.80
2018-10-02T17:16:17.746Z,13.80
2018-10-02T17:18:46.052Z,13.80
2018-10-02T17:21:14.314Z,13.70
2018-10-02T17:23:42.667Z,13.70
2018-10-02T17:26:10.947Z,13.70
2018-10-02T17:28:39.214Z,13.70
2018-10-02T17:31:14.626Z,13.60
2018-10-02T17:33:42.915Z,13.60
2018-10-02T17:36:11.375Z,13.50
2018-10-02T17:38:39.695Z,13.50
2018-10-02T17:41:08.192Z,13.40
2018-10-02T17:43:37.270Z,13.40
2018-10-02T17:46:05.575Z,13.30
2018-10-02T17:48:33.899Z,13.20
2018-10-02T17:51:02.224Z,13.10
2018-10-02T17:53:30.508Z,13.10
2018-10-02T17:55:58.796Z,13.10
2018-10-02T17:58:27.186Z,13.10
2018-10-02T18:00:55.456Z,13.10
2018-10-02T18:03:23.808Z,13.00
2018-10-02T18:05:52.121Z,12.90
2018-10-02T18:08:20.470Z,12.90
2018-10-02T18:10:48.713Z,12.90
2018-10-02T18:13:16.985Z,12.90
2018-10-02T18:15:45.339Z,12.90
2018-10-02T18:18:13.797Z,12.90
2018-10-02T18:20:42.139Z,12.80
2018-10-02T18:23:10.453Z,12.80
2018-10-02T18:25:39.523Z,12.70
2018-10-02T18:28:07.831Z,12.70
2018-10-02T18:30:36.091Z,12.70
2018-10-02T18:33:04.439Z,12.70
2018-10-02T18:35:32.738Z,12.60
2018-10-02T18:38:01.005Z,12.60
2018-10-02T18:40:29.323Z,12.50
2018-10-02T18:42:57.731Z,12.50
2018-10-02T18:45:26.039Z,12.50
2018-10-02T18:47:54.676Z,12.50
2018-10-02T18:50:23.023Z,12.50
2018-10-02T18:52:51.602Z,12.40
2018-10-02T18:55:19.932Z,12.40
2018-10-02T18:57:48.195Z,12.40
2018-10-02T19:00:16.475Z,12.40
2018-10-02T19:02:44.811Z,12.40
2018-10-02T19:05:13.176Z,12.40
2018-10-02T19:07:41.495Z,12.30
2018-10-02T19:10:09.830Z,12.30
2018-10-02T19:12:38.227Z,12.30
2018-10-02T19:15:06.610Z,12.30
2018-10-02T19:17:35.075Z,12.30
2018-10-02T19:20:08.596Z,12.20
2018-10-02T19:32:40.036Z,12.20
2018-10-02T19:35:08.371Z,12.00
2018-10-02T19:37:42.173Z,11.90
2018-10-02T19:40:10.476Z,11.90
2018-10-02T19:42:38.869Z,11.80
2018-10-02T19:45:12.821Z,11.80
2018-10-02T19:47:41.124Z,11.80
2018-10-02T19:50:09.476Z,11.90
2018-10-02T19:52:37.851Z,11.80
2018-10-02T19:55:06.172Z,11.80
2018-10-02T19:57:34.441Z,11.70
2018-10-02T20:00:02.924Z,11.70
2018-10-02T20:02:31.216Z,11.70
2018-10-02T20:04:59.516Z,11.70
2018-10-02T20:07:27.852Z,11.60
2018-10-02T20:09:56.145Z,11.60
2018-10-02T20:12:24.420Z,11.70
2018-10-02T20:14:52.753Z,11.70
2018-10-02T20:17:21.036Z,11.80
2018-10-02T20:19:49.360Z,11.80
2018-10-02T20:22:17.637Z,11.80
2018-10-02T20:24:45.892Z,11.80
2018-10-02T20:27:14.255Z,11.80
2018-10-02T20:29:42.471Z,11.80
2018-10-02T20:32:10.792Z,11.80
2018-10-02T20:34:39.065Z,11.80
2018-10-02T20:37:07.343Z,11.70
2018-10-02T20:39:35.684Z,11.80
2018-10-02T20:42:04.040Z,11.70
2018-10-02T20:44:32.345Z,11.70
2018-10-02T20:47:02.628Z,11.60
2018-10-02T20:49:30.925Z,11.60
2018-10-02T20:51:59.417Z,11.60
2018-10-02T20:54:27.813Z,11.50
2018-10-02T20:56:56.233Z,11.40
2018-10-02T20:59:24.485Z,11.40
2018-10-02T21:01:52.736Z,11.40
2018-10-02T21:04:21.029Z,11.40
2018-10-02T21:06:49.379Z,11.40
2018-10-02T21:09:17.881Z,11.40
2018-10-02T21:11:46.400Z,11.40
2018-10-02T21:14:14.749Z,11.30
2018-10-02T21:16:43.033Z,11.30
2018-10-02T21:19:11.319Z,11.30
2018-10-02T21:21:39.592Z,11.30
2018-10-02T21:24:07.817Z,11.30
2018-10-02T21:26:36.100Z,11.30
2018-10-02T21:29:04.440Z,11.20
2018-10-02T21:31:32.642Z,11.20
2018-10-02T21:34:00.881Z,11.10
2018-10-02T21:36:29.150Z,11.10
2018-10-02T21:38:57.449Z,11.10
2018-10-02T21:41:25.701Z,11.10
2018-10-02T21:43:53.958Z,11.10
2018-10-02T21:46:22.209Z,11.10
2018-10-02T21:48:50.525Z,11.10
2018-10-02T21:51:18.774Z,11.00
2018-10-02T21:53:47.038Z,11.10
2018-10-02T21:56:15.302Z,11.00
2018-10-02T21:58:43.718Z,11.00
2018-10-02T22:01:11.959Z,11.00
2018-10-02T22:03:40.774Z,10.90
2018-10-02T22:06:09.022Z,10.90
2018-10-02T22:08:37.469Z,11.00
2018-10-02T22:11:05.759Z,11.00
2018-10-02T22:13:34.058Z,11.00
2018-10-02T22:16:02.333Z,11.00
2018-10-02T22:18:30.614Z,11.00
2018-10-02T22:20:58.917Z,11.00
2018-10-02T22:23:27.310Z,11.00
